sensor_id;sensor_type;location;lat;lon;timestamp;temperature;humidity
18388;DHT22;9320;50.256;19.026;2023-01-04T00:01:24;5.80;99.90
18388;DHT22;9320;50.256;19.026;2023-01-04T00:03:52;5.80;99.90
18388;DHT22;9320;50.256;19.026;2023-01-04T00:06:21;5.80;99.90
18388;DHT22;9320;50.256;19.026;2023-01-04T00:08:49;5.80;99.90
18388;DHT22;9320;50.256;19.026;2023-01-04T00:11:19;5.80;99.90
18388;DHT22;9320;50.256;19.026;2023-01-04T00:13:50;5.80;99.90
18388;DHT22;9320;50.256;19.026;2023-01-04T00:16:20;5.80;99.90
18388;DHT22;9320;50.256;19.026;2023-01-04T00:18:48;5.80;99.90
18388;DHT22;9320;50.256;19.026;2023-01-04T00:21:18;5.80;99.90
18388;DHT22;9320;50.256;19.026;2023-01-04T00:23:48;5.90;99.90
18388;DHT22;9320;50.256;19.026;2023-01-04T00:26:18;5.90;99.90
18388;DHT22;9320;50.256;19.026;2023-01-04T00:28:52;5.80;99.90
18388;DHT22;9320;50.256;19.026;2023-01-04T00:31:21;5.80;99.90
18388;DHT22;9320;50.256;19.026;2023-01-04T00:33:52;5.80;99.90
18388;DHT22;9320;50.256;19.026;2023-01-04T00:36:20;5.90;99.90
18388;DHT22;9320;50.256;19.026;2023-01-04T00:38:48;5.80;99.90
18388;DHT22;9320;50.256;19.026;2023-01-04T00:41:35;5.90;99.90
18388;DHT22;9320;50.256;19.026;2023-01-04T00:44:25;5.80;99.90
18388;DHT22;9320;50.256;19.026;2023-01-04T00:46:53;5.80;99.90
18388;DHT22;9320;50.256;19.026;2023-01-04T00:49:22;5.80;99.90
18388;DHT22;9320;50.256;19.026;2023-01-04T00:51:50;5.80;99.90
18388;DHT22;9320;50.256;19.026;2023-01-04T00:54:18;5.80;99.90
18388;DHT22;9320;50.256;19.026;2023-01-04T00:56:47;5.90;99.90
18388;DHT22;9320;50.256;19.026;2023-01-04T00:59:18;5.90;99.90
18388;DHT22;9320;50.256;19.026;2023-01-04T01:01:47;5.80;99.90
18388;DHT22;9320;50.256;19.026;2023-01-04T01:04:17;5.80;99.90
18388;DHT22;9320;50.256;19.026;2023-01-04T01:06:46;5.80;99.90
18388;DHT22;9320;50.256;19.026;2023-01-04T01:09:15;5.80;99.90
18388;DHT22;9320;50.256;19.026;2023-01-04T01:11:43;5.80;99.90
18388;DHT22;9320;50.256;19.026;2023-01-04T01:14:15;5.80;99.90
18388;DHT22;9320;50.256;19.026;2023-01-04T01:16:44;5.70;99.90
18388;DHT22;9320;50.256;19.026;2023-01-04T01:19:25;5.70;99.90
18388;DHT22;9320;50.256;19.026;2023-01-04T01:21:53;5.70;99.90
18388;DHT22;9320;50.256;19.026;2023-01-04T01:24:23;5.70;99.90
18388;DHT22;9320;50.256;19.026;2023-01-04T01:26:51;5.60;99.90
18388;DHT22;9320;50.256;19.026;2023-01-04T01:29:19;5.50;99.90
18388;DHT22;9320;50.256;19.026;2023-01-04T01:31:47;5.60;99.90
18388;DHT22;9320;50.256;19.026;2023-01-04T01:34:15;5.50;99.90
18388;DHT22;9320;50.256;19.026;2023-01-04T01:36:44;5.50;99.90
18388;DHT22;9320;50.256;19.026;2023-01-04T01:39:12;5.40;99.90
18388;DHT22;9320;50.256;19.026;2023-01-04T01:41:41;5.30;99.90
18388;DHT22;9320;50.256;19.026;2023-01-04T01:47:13;5.30;99.90
18388;DHT22;9320;50.256;19.026;2023-01-04T01:49:42;5.40;99.90
18388;DHT22;9320;50.256;19.026;2023-01-04T01:52:17;5.40;99.90
18388;DHT22;9320;50.256;19.026;2023-01-04T01:54:51;5.40;99.90
18388;DHT22;9320;50.256;19.026;2023-01-04T01:57:23;5.20;99.90
18388;DHT22;9320;50.256;19.026;2023-01-04T01:59:54;5.20;99.90
18388;DHT22;9320;50.256;19.026;2023-01-04T02:02:22;5.10;99.90
18388;DHT22;9320;50.256;19.026;2023-01-04T02:04:51;5.10;99.90
18388;DHT22;9320;50.256;19.026;2023-01-04T02:07:23;5.10;99.90
18388;DHT22;9320;50.256;19.026;2023-01-04T02:09:52;5.10;99.90
18388;DHT22;9320;50.256;19.026;2023-01-04T02:12:20;5.10;99.90
18388;DHT22;9320;50.256;19.026;2023-01-04T02:14:50;4.90;99.90
18388;DHT22;9320;50.256;19.026;2023-01-04T02:17:26;5.00;99.90
18388;DHT22;9320;50.256;19.026;2023-01-04T02:20:21;4.90;99.90
18388;DHT22;9320;50.256;19.026;2023-01-04T02:29:34;4.90;99.90
18388;DHT22;9320;50.256;19.026;2023-01-04T02:32:08;4.80;99.90
18388;DHT22;9320;50.256;19.026;2023-01-04T02:34:43;4.80;99.90
18388;DHT22;9320;50.256;19.026;2023-01-04T02:37:28;4.80;99.90
18388;DHT22;9320;50.256;19.026;2023-01-04T02:40:06;4.90;99.90
18388;DHT22;9320;50.256;19.026;2023-01-04T02:42:40;4.80;99.90
18388;DHT22;9320;50.256;19.026;2023-01-04T02:45:33;4.70;99.90
18388;DHT22;9320;50.256;19.026;2023-01-04T02:48:05;4.70;99.90
18388;DHT22;9320;50.256;19.026;2023-01-04T02:51:00;4.60;99.90
18388;DHT22;9320;50.256;19.026;2023-01-04T02:53:30;4.60;99.90
18388;DHT22;9320;50.256;19.026;2023-01-04T02:56:09;4.50;99.90
18388;DHT22;9320;50.256;19.026;2023-01-04T02:59:10;4.50;99.90
18388;DHT22;9320;50.256;19.026;2023-01-04T03:01:44;4.60;99.90
18388;DHT22;9320;50.256;19.026;2023-01-04T03:04:43;4.70;99.90
18388;DHT22;9320;50.256;19.026;2023-01-04T03:07:38;4.80;99.90
18388;DHT22;9320;50.256;19.026;2023-01-04T03:10:08;4.80;99.90
18388;DHT22;9320;50.256;19.026;2023-01-04T03:12:43;4.80;99.90
18388;DHT22;9320;50.256;19.026;2023-01-04T03:15:15;4.70;99.90
18388;DHT22;9320;50.256;19.026;2023-01-04T03:17:49;4.70;99.90
18388;DHT22;9320;50.256;19.026;2023-01-04T03:20:20;4.80;99.90
18388;DHT22;9320;50.256;19.026;2023-01-04T03:22:52;4.80;99.90
18388;DHT22;9320;50.256;19.026;2023-01-04T03:25:42;4.80;99.90
18388;DHT22;9320;50.256;19.026;2023-01-04T03:28:32;4.80;99.90
18388;DHT22;9320;50.256;19.026;2023-01-04T03:31:23;4.70;99.90
18388;DHT22;9320;50.256;19.026;2023-01-04T03:34:11;4.60;99.90
18388;DHT22;9320;50.256;19.026;2023-01-04T03:37:05;4.60;99.90
18388;DHT22;9320;50.256;19.026;2023-01-04T03:39:43;4.60;99.90
18388;DHT22;9320;50.256;19.026;2023-01-04T03:42:37;4.60;99.90
18388;DHT22;9320;50.256;19.026;2023-01-04T03:45:28;4.60;99.90
18388;DHT22;9320;50.256;19.026;2023-01-04T03:48:19;4.50;99.90
18388;DHT22;9320;50.256;19.026;2023-01-04T03:51:08;4.50;99.90
18388;DHT22;9320;50.256;19.026;2023-01-04T03:53:48;4.60;99.90
18388;DHT22;9320;50.256;19.026;2023-01-04T03:56:20;4.50;99.90
18388;DHT22;9320;50.256;19.026;2023-01-04T03:58:49;4.60;99.90
18388;DHT22;9320;50.256;19.026;2023-01-04T04:01:18;4.60;99.90
18388;DHT22;9320;50.256;19.026;2023-01-04T04:03:47;4.50;99.90
18388;DHT22;9320;50.256;19.026;2023-01-04T04:06:33;4.40;99.90
18388;DHT22;9320;50.256;19.026;2023-01-04T04:09:20;4.40;99.90
18388;DHT22;9320;50.256;19.026;2023-01-04T04:11:48;4.40;99.90
18388;DHT22;9320;50.256;19.026;2023-01-04T04:14:16;4.50;99.90
18388;DHT22;9320;50.256;19.026;2023-01-04T04:16:44;4.40;99.90
18388;DHT22;9320;50.256;19.026;2023-01-04T04:19:12;4.30;99.90
18388;DHT22;9320;50.256;19.026;2023-01-04T04:21:41;4.30;99.90
18388;DHT22;9320;50.256;19.026;2023-01-04T04:24:16;4.30;99.90
18388;DHT22;9320;50.256;19.026;2023-01-04T04:26:46;4.40;99.90
18388;DHT22;9320;50.256;19.026;2023-01-04T04:29:14;4.30;99.90
18388;DHT22;9320;50.256;19.026;2023-01-04T04:31:42;4.40;99.90
18388;DHT22;9320;50.256;19.026;2023-01-04T04:34:10;4.30;99.90
18388;DHT22;9320;50.256;19.026;2023-01-04T04:36:38;4.30;99.90
18388;DHT22;9320;50.256;19.026;2023-01-04T04:39:06;4.20;99.90
18388;DHT22;9320;50.256;19.026;2023-01-04T04:41:34;4.10;99.90
18388;DHT22;9320;50.256;19.026;2023-01-04T04:44:06;4.20;99.90
18388;DHT22;9320;50.256;19.026;2023-01-04T04:46:34;4.20;99.90
18388;DHT22;9320;50.256;19.026;2023-01-04T04:49:03;4.20;99.90
18388;DHT22;9320;50.256;19.026;2023-01-04T04:51:31;4.20;99.90
18388;DHT22;9320;50.256;19.026;2023-01-04T04:54:00;4.20;99.90
18388;DHT22;9320;50.256;19.026;2023-01-04T04:56:28;4.10;99.90
18388;DHT22;9320;50.256;19.026;2023-01-04T04:58:56;4.10;99.90
18388;DHT22;9320;50.256;19.026;2023-01-04T05:01:25;4.20;99.90
18388;DHT22;9320;50.256;19.026;2023-01-04T05:03:53;4.20;99.90
18388;DHT22;9320;50.256;19.026;2023-01-04T05:06:22;4.20;99.90
18388;DHT22;9320;50.256;19.026;2023-01-04T05:08:50;4.20;99.90
18388;DHT22;9320;50.256;19.026;2023-01-04T05:11:18;4.20;99.90
18388;DHT22;9320;50.256;19.026;2023-01-04T05:14:06;4.30;99.90
18388;DHT22;9320;50.256;19.026;2023-01-04T05:16:35;4.30;99.90
18388;DHT22;9320;50.256;19.026;2023-01-04T05:19:03;4.30;99.90
18388;DHT22;9320;50.256;19.026;2023-01-04T05:21:31;4.20;99.90
18388;DHT22;9320;50.256;19.026;2023-01-04T05:23:59;4.20;99.90
18388;DHT22;9320;50.256;19.026;2023-01-04T05:26:27;4.30;99.90
18388;DHT22;9320;50.256;19.026;2023-01-04T05:28:55;4.30;99.90
18388;DHT22;9320;50.256;19.026;2023-01-04T05:31:24;4.30;99.90
18388;DHT22;9320;50.256;19.026;2023-01-04T05:33:53;4.30;99.90
18388;DHT22;9320;50.256;19.026;2023-01-04T05:36:21;4.30;99.90
18388;DHT22;9320;50.256;19.026;2023-01-04T05:38:49;4.40;99.90
18388;DHT22;9320;50.256;19.026;2023-01-04T05:41:17;4.40;99.90
18388;DHT22;9320;50.256;19.026;2023-01-04T05:44:03;4.40;99.90
18388;DHT22;9320;50.256;19.026;2023-01-04T05:46:31;4.40;99.90
18388;DHT22;9320;50.256;19.026;2023-01-04T05:49:00;4.40;99.90
18388;DHT22;9320;50.256;19.026;2023-01-04T05:51:28;4.40;99.90
18388;DHT22;9320;50.256;19.026;2023-01-04T05:53:56;4.40;99.90
18388;DHT22;9320;50.256;19.026;2023-01-04T05:56:24;4.40;99.90
18388;DHT22;9320;50.256;19.026;2023-01-04T05:58:52;4.40;99.90
18388;DHT22;9320;50.256;19.026;2023-01-04T06:01:20;4.40;99.90
18388;DHT22;9320;50.256;19.026;2023-01-04T06:03:48;4.50;99.90
18388;DHT22;9320;50.256;19.026;2023-01-04T06:06:18;4.40;99.90
18388;DHT22;9320;50.256;19.026;2023-01-04T06:08:46;4.30;99.90
18388;DHT22;9320;50.256;19.026;2023-01-04T06:11:14;4.40;99.90
18388;DHT22;9320;50.256;19.026;2023-01-04T06:13:42;4.50;99.90
18388;DHT22;9320;50.256;19.026;2023-01-04T06:16:10;4.40;99.90
18388;DHT22;9320;50.256;19.026;2023-01-04T06:18:38;4.40;99.90
18388;DHT22;9320;50.256;19.026;2023-01-04T06:21:06;4.40;99.90
18388;DHT22;9320;50.256;19.026;2023-01-04T06:23:35;4.40;99.90
18388;DHT22;9320;50.256;19.026;2023-01-04T06:26:03;4.60;99.90
18388;DHT22;9320;50.256;19.026;2023-01-04T06:28:31;4.40;99.90
18388;DHT22;9320;50.256;19.026;2023-01-04T06:31:07;4.40;99.90
18388;DHT22;9320;50.256;19.026;2023-01-04T06:33:36;4.40;99.90
18388;DHT22;9320;50.256;19.026;2023-01-04T06:36:04;4.40;99.90
18388;DHT22;9320;50.256;19.026;2023-01-04T06:38:47;4.30;99.90
18388;DHT22;9320;50.256;19.026;2023-01-04T06:41:15;4.20;99.90
18388;DHT22;9320;50.256;19.026;2023-01-04T06:43:43;4.40;99.90
18388;DHT22;9320;50.256;19.026;2023-01-04T06:46:11;4.30;99.90
18388;DHT22;9320;50.256;19.026;2023-01-04T06:48:39;4.30;99.90
18388;DHT22;9320;50.256;19.026;2023-01-04T06:51:07;4.30;99.90
18388;DHT22;9320;50.256;19.026;2023-01-04T06:53:39;4.30;99.90
18388;DHT22;9320;50.256;19.026;2023-01-04T06:56:09;4.30;99.90
18388;DHT22;9320;50.256;19.026;2023-01-04T06:58:37;4.30;99.90
18388;DHT22;9320;50.256;19.026;2023-01-04T07:01:05;4.40;99.90
18388;DHT22;9320;50.256;19.026;2023-01-04T07:03:34;4.30;99.90
18388;DHT22;9320;50.256;19.026;2023-01-04T07:06:03;4.20;99.90
18388;DHT22;9320;50.256;19.026;2023-01-04T07:08:33;4.20;99.90
18388;DHT22;9320;50.256;19.026;2023-01-04T07:11:01;4.20;99.90
18388;DHT22;9320;50.256;19.026;2023-01-04T07:13:31;4.20;99.90
18388;DHT22;9320;50.256;19.026;2023-01-04T07:15:59;4.20;99.90
18388;DHT22;9320;50.256;19.026;2023-01-04T07:18:27;4.20;99.90
18388;DHT22;9320;50.256;19.026;2023-01-04T07:20:55;4.20;99.90
18388;DHT22;9320;50.256;19.026;2023-01-04T07:23:23;4.30;99.90
18388;DHT22;9320;50.256;19.026;2023-01-04T07:25:51;4.30;99.90
18388;DHT22;9320;50.256;19.026;2023-01-04T07:28:19;4.30;99.90
18388;DHT22;9320;50.256;19.026;2023-01-04T07:31:06;4.30;99.90
18388;DHT22;9320;50.256;19.026;2023-01-04T07:33:34;4.30;99.90
18388;DHT22;9320;50.256;19.026;2023-01-04T07:36:04;4.30;99.90
18388;DHT22;9320;50.256;19.026;2023-01-04T07:38:32;4.30;99.90
18388;DHT22;9320;50.256;19.026;2023-01-04T07:41:00;4.30;99.90
18388;DHT22;9320;50.256;19.026;2023-01-04T07:43:28;4.30;99.90
18388;DHT22;9320;50.256;19.026;2023-01-04T07:45:56;4.40;99.90
18388;DHT22;9320;50.256;19.026;2023-01-04T07:48:26;4.30;99.90
18388;DHT22;9320;50.256;19.026;2023-01-04T07:50:55;4.40;99.90
18388;DHT22;9320;50.256;19.026;2023-01-04T07:53:23;4.50;99.90
18388;DHT22;9320;50.256;19.026;2023-01-04T07:55:54;4.40;99.90
18388;DHT22;9320;50.256;19.026;2023-01-04T07:58:23;4.40;99.90
18388;DHT22;9320;50.256;19.026;2023-01-04T08:00:51;4.50;99.90
18388;DHT22;9320;50.256;19.026;2023-01-04T08:03:19;4.50;99.90
18388;DHT22;9320;50.256;19.026;2023-01-04T08:05:48;4.50;99.90
18388;DHT22;9320;50.256;19.026;2023-01-04T08:08:16;4.50;99.90
18388;DHT22;9320;50.256;19.026;2023-01-04T08:10:44;4.50;99.90
18388;DHT22;9320;50.256;19.026;2023-01-04T08:13:13;4.60;99.90
18388;DHT22;9320;50.256;19.026;2023-01-04T08:15:41;4.60;99.90
18388;DHT22;9320;50.256;19.026;2023-01-04T08:18:09;4.60;99.90
18388;DHT22;9320;50.256;19.026;2023-01-04T08:20:37;4.70;99.90
18388;DHT22;9320;50.256;19.026;2023-01-04T08:23:06;4.70;99.90
18388;DHT22;9320;50.256;19.026;2023-01-04T08:25:34;4.70;99.90
18388;DHT22;9320;50.256;19.026;2023-01-04T08:28:03;4.70;99.90
18388;DHT22;9320;50.256;19.026;2023-01-04T08:30:31;4.80;99.90
18388;DHT22;9320;50.256;19.026;2023-01-04T08:32:58;4.90;99.90
18388;DHT22;9320;50.256;19.026;2023-01-04T08:35:27;4.80;99.90
18388;DHT22;9320;50.256;19.026;2023-01-04T08:37:54;4.80;99.90
18388;DHT22;9320;50.256;19.026;2023-01-04T08:40:44;4.90;99.90
18388;DHT22;9320;50.256;19.026;2023-01-04T08:43:27;4.80;99.90
18388;DHT22;9320;50.256;19.026;2023-01-04T08:45:56;4.90;99.90
18388;DHT22;9320;50.256;19.026;2023-01-04T08:48:24;4.80;99.90
18388;DHT22;9320;50.256;19.026;2023-01-04T08:50:52;4.90;99.90
18388;DHT22;9320;50.256;19.026;2023-01-04T08:53:20;5.00;99.90
18388;DHT22;9320;50.256;19.026;2023-01-04T08:55:50;5.00;99.90
18388;DHT22;9320;50.256;19.026;2023-01-04T08:58:19;5.00;99.90
18388;DHT22;9320;50.256;19.026;2023-01-04T09:00:47;5.10;99.90
18388;DHT22;9320;50.256;19.026;2023-01-04T09:03:15;5.10;99.90
18388;DHT22;9320;50.256;19.026;2023-01-04T09:05:43;5.10;99.90
18388;DHT22;9320;50.256;19.026;2023-01-04T09:08:12;5.60;99.90
18388;DHT22;9320;50.256;19.026;2023-01-04T09:10:40;5.30;99.90
18388;DHT22;9320;50.256;19.026;2023-01-04T09:13:09;5.30;99.90
18388;DHT22;9320;50.256;19.026;2023-01-04T09:15:37;5.40;99.90
18388;DHT22;9320;50.256;19.026;2023-01-04T09:18:05;5.40;99.90
18388;DHT22;9320;50.256;19.026;2023-01-04T09:20:54;5.40;99.90
18388;DHT22;9320;50.256;19.026;2023-01-04T09:23:22;5.50;99.90
18388;DHT22;9320;50.256;19.026;2023-01-04T09:25:50;5.60;99.90
18388;DHT22;9320;50.256;19.026;2023-01-04T09:28:20;5.60;99.90
18388;DHT22;9320;50.256;19.026;2023-01-04T09:30:48;5.70;99.90
18388;DHT22;9320;50.256;19.026;2023-01-04T09:33:16;5.80;99.90
18388;DHT22;9320;50.256;19.026;2023-01-04T09:35:44;5.80;99.90
18388;DHT22;9320;50.256;19.026;2023-01-04T09:38:12;6.20;99.90
18388;DHT22;9320;50.256;19.026;2023-01-04T09:40:49;6.00;99.90
18388;DHT22;9320;50.256;19.026;2023-01-04T09:43:22;6.00;99.90
18388;DHT22;9320;50.256;19.026;2023-01-04T09:45:52;6.10;99.90
18388;DHT22;9320;50.256;19.026;2023-01-04T09:48:26;6.50;99.90
18388;DHT22;9320;50.256;19.026;2023-01-04T09:50:58;6.20;99.90
18388;DHT22;9320;50.256;19.026;2023-01-04T09:53:29;6.20;99.90
18388;DHT22;9320;50.256;19.026;2023-01-04T09:56:05;6.30;99.90
18388;DHT22;9320;50.256;19.026;2023-01-04T09:58:39;6.40;99.90
18388;DHT22;9320;50.256;19.026;2023-01-04T10:01:13;6.40;99.90
18388;DHT22;9320;50.256;19.026;2023-01-04T10:03:46;6.50;99.90
18388;DHT22;9320;50.256;19.026;2023-01-04T10:06:17;6.50;99.90
18388;DHT22;9320;50.256;19.026;2023-01-04T10:08:46;6.60;99.90
18388;DHT22;9320;50.256;19.026;2023-01-04T10:11:35;6.60;99.90
18388;DHT22;9320;50.256;19.026;2023-01-04T10:14:20;6.70;99.90
18388;DHT22;9320;50.256;19.026;2023-01-04T10:17:01;6.80;99.90
18388;DHT22;9320;50.256;19.026;2023-01-04T10:19:52;7.00;99.90
18388;DHT22;9320;50.256;19.026;2023-01-04T10:22:48;7.00;99.90
18388;DHT22;9320;50.256;19.026;2023-01-04T10:25:26;7.10;99.90
18388;DHT22;9320;50.256;19.026;2023-01-04T10:28:18;7.20;99.90
18388;DHT22;9320;50.256;19.026;2023-01-04T10:30:55;7.20;99.90
18388;DHT22;9320;50.256;19.026;2023-01-04T10:33:47;7.20;99.90
18388;DHT22;9320;50.256;19.026;2023-01-04T10:36:18;7.30;99.90
18388;DHT22;9320;50.256;19.026;2023-01-04T10:38:49;7.30;99.90
18388;DHT22;9320;50.256;19.026;2023-01-04T10:41:21;7.30;99.90
18388;DHT22;9320;50.256;19.026;2023-01-04T10:44:01;7.30;99.90
18388;DHT22;9320;50.256;19.026;2023-01-04T10:46:44;7.40;99.90
18388;DHT22;9320;50.256;19.026;2023-01-04T10:49:17;7.50;99.90
18388;DHT22;9320;50.256;19.026;2023-01-04T10:51:52;7.50;99.90
18388;DHT22;9320;50.256;19.026;2023-01-04T10:54:28;7.60;99.90
18388;DHT22;9320;50.256;19.026;2023-01-04T10:57:00;7.60;99.90
18388;DHT22;9320;50.256;19.026;2023-01-04T10:59:37;7.70;99.90
18388;DHT22;9320;50.256;19.026;2023-01-04T11:02:17;7.80;99.90
18388;DHT22;9320;50.256;19.026;2023-01-04T11:04:53;7.80;99.90
18388;DHT22;9320;50.256;19.026;2023-01-04T11:07:27;7.90;99.90
18388;DHT22;9320;50.256;19.026;2023-01-04T11:10:01;8.00;99.90
18388;DHT22;9320;50.256;19.026;2023-01-04T11:12:30;7.90;99.70
18388;DHT22;9320;50.256;19.026;2023-01-04T11:14:58;7.90;99.50
18388;DHT22;9320;50.256;19.026;2023-01-04T11:17:29;7.90;99.30
18388;DHT22;9320;50.256;19.026;2023-01-04T11:19:57;8.10;98.90
18388;DHT22;9320;50.256;19.026;2023-01-04T11:22:29;7.90;98.80
18388;DHT22;9320;50.256;19.026;2023-01-04T11:25:01;7.90;98.60
18388;DHT22;9320;50.256;19.026;2023-01-04T11:27:56;8.00;99.10
18388;DHT22;9320;50.256;19.026;2023-01-04T11:30:30;8.00;98.50
18388;DHT22;9320;50.256;19.026;2023-01-04T11:33:02;8.00;98.30
18388;DHT22;9320;50.256;19.026;2023-01-04T11:35:41;8.00;98.10
18388;DHT22;9320;50.256;19.026;2023-01-04T11:38:12;8.00;98.10
18388;DHT22;9320;50.256;19.026;2023-01-04T11:40:41;8.00;98.30
18388;DHT22;9320;50.256;19.026;2023-01-04T11:43:16;7.90;98.40
18388;DHT22;9320;50.256;19.026;2023-01-04T11:45:57;7.90;98.80
18388;DHT22;9320;50.256;19.026;2023-01-04T11:48:36;7.90;98.50
18388;DHT22;9320;50.256;19.026;2023-01-04T11:51:16;8.00;98.50
18388;DHT22;9320;50.256;19.026;2023-01-04T11:53:44;8.00;98.40
18388;DHT22;9320;50.256;19.026;2023-01-04T11:56:16;8.00;98.50
18388;DHT22;9320;50.256;19.026;2023-01-04T11:59:10;8.10;98.50
18388;DHT22;9320;50.256;19.026;2023-01-04T12:01:49;8.10;98.60
18388;DHT22;9320;50.256;19.026;2023-01-04T12:04:23;8.20;98.50
18388;DHT22;9320;50.256;19.026;2023-01-04T12:06:54;8.40;98.40
18388;DHT22;9320;50.256;19.026;2023-01-04T12:09:23;8.40;98.30
18388;DHT22;9320;50.256;19.026;2023-01-04T12:11:52;8.40;98.30
18388;DHT22;9320;50.256;19.026;2023-01-04T12:14:24;8.40;98.20
18388;DHT22;9320;50.256;19.026;2023-01-04T12:16:57;8.40;98.30
18388;DHT22;9320;50.256;19.026;2023-01-04T12:19:29;8.30;97.80
18388;DHT22;9320;50.256;19.026;2023-01-04T12:21:59;8.30;97.70
18388;DHT22;9320;50.256;19.026;2023-01-04T12:24:30;8.30;97.60
18388;DHT22;9320;50.256;19.026;2023-01-04T12:26:59;8.30;97.60
18388;DHT22;9320;50.256;19.026;2023-01-04T12:29:38;8.30;97.50
18388;DHT22;9320;50.256;19.026;2023-01-04T12:32:39;8.20;97.20
18388;DHT22;9320;50.256;19.026;2023-01-04T12:38:11;8.20;97.60
18388;DHT22;9320;50.256;19.026;2023-01-04T12:40:52;8.20;97.40
18388;DHT22;9320;50.256;19.026;2023-01-04T12:43:25;8.20;97.40
18388;DHT22;9320;50.256;19.026;2023-01-04T12:49:48;8.20;97.40
18388;DHT22;9320;50.256;19.026;2023-01-04T12:52:40;8.20;97.20
18388;DHT22;9320;50.256;19.026;2023-01-04T12:55:59;8.30;97.00
18388;DHT22;9320;50.256;19.026;2023-01-04T12:59:04;8.40;97.00
18388;DHT22;9320;50.256;19.026;2023-01-04T13:02:15;8.50;96.40
18388;DHT22;9320;50.256;19.026;2023-01-04T13:04:44;8.50;96.40
18388;DHT22;9320;50.256;19.026;2023-01-04T13:07:19;8.60;96.10
18388;DHT22;9320;50.256;19.026;2023-01-04T13:09:53;8.60;96.10
18388;DHT22;9320;50.256;19.026;2023-01-04T13:12:51;8.50;96.00
18388;DHT22;9320;50.256;19.026;2023-01-04T13:15:23;8.50;96.20
18388;DHT22;9320;50.256;19.026;2023-01-04T13:17:57;8.50;96.10
18388;DHT22;9320;50.256;19.026;2023-01-04T13:20:26;8.40;96.40
18388;DHT22;9320;50.256;19.026;2023-01-04T13:22:57;8.40;96.60
18388;DHT22;9320;50.256;19.026;2023-01-04T13:25:25;8.40;96.80
18388;DHT22;9320;50.256;19.026;2023-01-04T13:27:57;8.40;96.90
18388;DHT22;9320;50.256;19.026;2023-01-04T13:30:30;8.40;97.00
18388;DHT22;9320;50.256;19.026;2023-01-04T13:33:06;8.40;97.10
18388;DHT22;9320;50.256;19.026;2023-01-04T13:35:59;8.40;97.20
18388;DHT22;9320;50.256;19.026;2023-01-04T13:38:29;8.50;97.20
18388;DHT22;9320;50.256;19.026;2023-01-04T13:40:59;8.50;97.00
18388;DHT22;9320;50.256;19.026;2023-01-04T13:43:43;8.40;96.90
18388;DHT22;9320;50.256;19.026;2023-01-04T13:46:15;8.50;97.00
18388;DHT22;9320;50.256;19.026;2023-01-04T13:48:48;8.50;97.00
18388;DHT22;9320;50.256;19.026;2023-01-04T13:51:22;8.60;96.90
18388;DHT22;9320;50.256;19.026;2023-01-04T13:54:00;8.60;96.80
18388;DHT22;9320;50.256;19.026;2023-01-04T13:56:31;8.70;96.90
18388;DHT22;9320;50.256;19.026;2023-01-04T13:59:00;8.60;97.10
18388;DHT22;9320;50.256;19.026;2023-01-04T14:01:31;8.60;97.10
18388;DHT22;9320;50.256;19.026;2023-01-04T14:04:01;8.50;97.20
18388;DHT22;9320;50.256;19.026;2023-01-04T14:06:32;8.60;97.20
18388;DHT22;9320;50.256;19.026;2023-01-04T14:09:04;8.60;97.30
18388;DHT22;9320;50.256;19.026;2023-01-04T14:11:34;8.50;97.30
18388;DHT22;9320;50.256;19.026;2023-01-04T14:14:38;8.50;97.50
18388;DHT22;9320;50.256;19.026;2023-01-04T14:17:21;8.60;97.50
18388;DHT22;9320;50.256;19.026;2023-01-04T14:19:54;8.60;97.50
18388;DHT22;9320;50.256;19.026;2023-01-04T14:22:38;8.70;97.60
18388;DHT22;9320;50.256;19.026;2023-01-04T14:28:34;8.80;97.50
18388;DHT22;9320;50.256;19.026;2023-01-04T14:31:31;8.70;97.60
18388;DHT22;9320;50.256;19.026;2023-01-04T14:34:10;8.80;97.90
18388;DHT22;9320;50.256;19.026;2023-01-04T14:36:40;8.80;97.50
18388;DHT22;9320;50.256;19.026;2023-01-04T14:39:18;8.80;97.50
18388;DHT22;9320;50.256;19.026;2023-01-04T14:41:55;8.70;97.50
18388;DHT22;9320;50.256;19.026;2023-01-04T14:44:28;8.80;97.70
18388;DHT22;9320;50.256;19.026;2023-01-04T14:46:59;8.80;97.70
18388;DHT22;9320;50.256;19.026;2023-01-04T14:49:30;8.80;97.80
18388;DHT22;9320;50.256;19.026;2023-01-04T14:51:59;8.70;98.00
18388;DHT22;9320;50.256;19.026;2023-01-04T14:54:28;8.80;98.00
18388;DHT22;9320;50.256;19.026;2023-01-04T14:56:57;8.80;98.20
18388;DHT22;9320;50.256;19.026;2023-01-04T14:59:25;8.70;98.30
18388;DHT22;9320;50.256;19.026;2023-01-04T15:01:55;8.80;98.60
18388;DHT22;9320;50.256;19.026;2023-01-04T15:04:25;8.70;98.80
18388;DHT22;9320;50.256;19.026;2023-01-04T15:06:55;8.70;99.20
18388;DHT22;9320;50.256;19.026;2023-01-04T15:09:23;8.70;99.80
18388;DHT22;9320;50.256;19.026;2023-01-04T15:11:51;8.70;99.90
18388;DHT22;9320;50.256;19.026;2023-01-04T15:14:19;8.70;99.90
18388;DHT22;9320;50.256;19.026;2023-01-04T15:16:47;8.70;99.90
18388;DHT22;9320;50.256;19.026;2023-01-04T15:19:16;8.70;99.90
18388;DHT22;9320;50.256;19.026;2023-01-04T15:21:45;8.60;99.90
18388;DHT22;9320;50.256;19.026;2023-01-04T15:24:13;8.60;99.90
18388;DHT22;9320;50.256;19.026;2023-01-04T15:26:41;8.60;99.90
18388;DHT22;9320;50.256;19.026;2023-01-04T15:29:10;8.50;99.90
18388;DHT22;9320;50.256;19.026;2023-01-04T15:31:38;8.60;99.90
18388;DHT22;9320;50.256;19.026;2023-01-04T15:34:08;8.60;99.90
18388;DHT22;9320;50.256;19.026;2023-01-04T15:36:37;8.50;99.90
18388;DHT22;9320;50.256;19.026;2023-01-04T15:39:10;8.40;99.90
18388;DHT22;9320;50.256;19.026;2023-01-04T15:41:40;8.30;99.90
18388;DHT22;9320;50.256;19.026;2023-01-04T15:44:25;8.20;99.90
18388;DHT22;9320;50.256;19.026;2023-01-04T15:46:53;8.10;99.90
18388;DHT22;9320;50.256;19.026;2023-01-04T15:49:22;8.00;99.90
18388;DHT22;9320;50.256;19.026;2023-01-04T15:51:50;8.00;99.90
18388;DHT22;9320;50.256;19.026;2023-01-04T15:54:19;7.90;99.90
18388;DHT22;9320;50.256;19.026;2023-01-04T15:56:49;7.90;99.90
18388;DHT22;9320;50.256;19.026;2023-01-04T15:59:18;7.80;99.90
18388;DHT22;9320;50.256;19.026;2023-01-04T16:01:46;7.70;99.90
18388;DHT22;9320;50.256;19.026;2023-01-04T16:04:14;7.70;99.90
18388;DHT22;9320;50.256;19.026;2023-01-04T16:06:42;7.60;99.90
18388;DHT22;9320;50.256;19.026;2023-01-04T16:09:10;7.60;99.90
18388;DHT22;9320;50.256;19.026;2023-01-04T16:11:40;7.60;99.90
18388;DHT22;9320;50.256;19.026;2023-01-04T16:14:28;7.60;99.90
18388;DHT22;9320;50.256;19.026;2023-01-04T16:16:57;7.60;99.90
18388;DHT22;9320;50.256;19.026;2023-01-04T16:19:25;7.60;99.90
18388;DHT22;9320;50.256;19.026;2023-01-04T16:21:53;7.60;99.90
18388;DHT22;9320;50.256;19.026;2023-01-04T16:24:21;7.60;99.90
18388;DHT22;9320;50.256;19.026;2023-01-04T16:27:11;7.70;99.90
18388;DHT22;9320;50.256;19.026;2023-01-04T16:29:39;7.70;99.90
18388;DHT22;9320;50.256;19.026;2023-01-04T16:32:07;7.70;99.90
18388;DHT22;9320;50.256;19.026;2023-01-04T16:34:35;7.70;99.90
18388;DHT22;9320;50.256;19.026;2023-01-04T16:37:03;7.70;99.90
18388;DHT22;9320;50.256;19.026;2023-01-04T16:39:31;7.70;99.90
18388;DHT22;9320;50.256;19.026;2023-01-04T16:42:21;7.80;99.90